Time;durP1;ratioP1;P1;durP2;ratioP2;P2;SDS_P1;SDS_P2;PMS_P1;PMS_P2;Temp;Humidity;BMP_temperature;BMP_pressure;BME280_temperature;BME280_humidity;BME280_pressure;Samples;Min_cycle;Max_cycle;Signal;HPM_P1;HPM_P2
2021/06/15 22:24:05;;;;;;;;;;;;;;;;;;4933448;28;19928;-77
2021/06/15 22:26:31;;;;;;;;;;;;;;;;;;4914829;28;19918;-79
2021/06/15 22:28:57;;;;;;;;;;;;;;;;;;4911819;28;20158;-80
2021/06/15 22:31:25;;;;;;;;;;;;;;;;;;4938915;28;20534;-82
2021/06/15 22:33:51;;;;;;;;;;;;;;;;;;4913938;28;20005;-80
2021/06/15 22:36:17;;;;;;;;;;;;;;;;;;4932471;28;20001;-79
2021/06/15 22:38:43;;;;;;;;;;;;;;;;;;4911447;28;20592;-82
2021/06/15 22:41:09;;;;;;;;;;;;;;;;;;4929793;28;19914;-85
2021/06/15 22:43:35;;;;;;;;;;;;;;;;;;4939901;29;19977;-82
2021/06/15 22:46:01;;;;;;;;;;;;;;;;;;4939678;28;19949;-82
2021/06/15 22:48:28;;;;;;;;;;;;;;;;;;4923025;28;20009;-86
2021/06/15 22:50:54;;;;;;;;;;;;;;;;;;4922779;28;19946;-84
2021/06/15 22:53:20;;;;;;;;;;;;;;;;;;4927657;28;20282;-87
2021/06/15 22:55:46;;;;;;;;;;;;;;;;;;4927803;28;20377;-84
2021/06/15 22:58:12;;;;;;;;;;;;;;;;;;4922009;28;19918;-87
2021/06/15 23:00:38;;;;;;;;;;;;;;;;;;4930159;28;19922;-86
2021/06/15 23:03:04;;;;;;;;;;;;;;;;;;4922911;28;20453;-84
2021/06/15 23:05:30;;;;;;;;;;;;;;;;;;4926641;28;20560;-88
2021/06/15 23:08:15;;;;;;;;;;;;;;;;;;4922395;28;19926;-86
2021/06/15 23:10:41;;;;;;;;;;;;;;;;;;4942546;28;19969;-85
2021/06/15 23:13:11;;;;;;;;;;;;;;;;;;4939322;28;19914;-85
2021/06/15 23:15:38;;;;;;;;;;;;;;;;;;4924812;28;19918;-82
2021/06/15 23:18:04;;;;;;;;;;;;;;;;;;4920033;28;19977;-84
2021/06/15 23:20:30;;;;;;;;;;;;;;;;;;4940504;28;19984;-84
2021/06/15 23:22:56;;;;;;;;;;;;;;;;;;4926369;28;19918;-85
2021/06/15 23:25:22;;;;;;;;;;;;;;;;;;4937704;28;19914;-84
2021/06/15 23:27:48;;;;;;;;;;;;;;;;;;4948058;28;19928;-84
2021/06/15 23:30:14;;;;;;;;;;;;;;;;;;4921217;28;20408;-84
2021/06/15 23:32:40;;;;;;;;;;;;;;;;;;4923034;28;19911;-85
2021/06/15 23:35:06;;;;;;;;;;;;;;;;;;4922450;28;20425;-85
2021/06/15 23:37:32;;;;;;;;;;;;;;;;;;4946353;28;19934;-84
2021/06/15 23:39:58;;;;;;;;;;;;;;;;;;4925651;28;19921;-84
2021/06/15 23:42:24;;;;;;;;;;;;;;;;;;4918759;28;19918;-83
2021/06/15 23:44:50;;;;;;;;;;;;;;;;;;4942569;28;19914;-84
2021/06/15 23:47:16;;;;;;;;;;;;;;;;;;4919988;28;19953;-83
2021/06/15 23:49:42;;;;;;;;;;;;;;;;;;4926070;28;20201;-85
2021/06/15 23:52:08;;;;;;;;;;;;;;;;;;4922782;28;20070;-83
2021/06/15 23:54:34;;;;;;;;;;;;;;;;;;4927462;28;20698;-84
2021/06/15 23:57:00;;;;;;;;;;;;;;;;;;4936165;28;20204;-84
2021/06/15 23:59:26;;;;;;;;;;;;;;;;;;4924060;28;20714;-84
